createdAt,value
2023-01-05T00:01:45.895Z,2.60
2023-01-05T00:04:13.310Z,2.60
2023-01-05T00:06:41.114Z,3.03
2023-01-05T00:09:12.013Z,2.90
2023-01-05T00:11:57.176Z,2.63
2023-01-05T00:14:46.677Z,3.00
2023-01-05T00:17:43.084Z,3.63
2023-01-05T00:20:37.783Z,2.65
2023-01-05T00:23:05.745Z,2.50
2023-01-05T00:25:37.437Z,2.88
2023-01-05T00:28:04.833Z,2.92
2023-01-05T00:30:40.005Z,2.53
2023-01-05T00:33:19.179Z,2.78
2023-01-05T00:35:45.960Z,3.47
2023-01-05T00:38:12.775Z,3.33
2023-01-05T00:40:39.821Z,2.97
2023-01-05T00:43:06.851Z,3.65
2023-01-05T00:45:33.754Z,4.03
2023-01-05T00:48:00.583Z,3.78
2023-01-05T00:50:27.784Z,3.38
2023-01-05T00:52:54.566Z,4.22
2023-01-05T00:55:21.392Z,3.35
2023-01-05T00:57:48.190Z,3.20
2023-01-05T01:00:18.418Z,4.00
2023-01-05T01:02:45.297Z,4.88
2023-01-05T01:05:12.521Z,2.75
2023-01-05T01:07:39.366Z,3.20
2023-01-05T01:10:07.521Z,2.75
2023-01-05T01:12:34.447Z,3.60
2023-01-05T01:15:01.230Z,2.92
2023-01-05T01:17:28.114Z,3.40
2023-01-05T01:19:54.921Z,4.00
2023-01-05T01:22:21.695Z,3.60
2023-01-05T01:24:48.466Z,3.17
2023-01-05T01:27:15.480Z,2.95
2023-01-05T01:29:42.257Z,3.58
2023-01-05T01:32:09.042Z,2.92
2023-01-05T01:34:35.974Z,3.10
2023-01-05T01:39:28.504Z,3.70
2023-01-05T01:41:55.287Z,3.63
2023-01-05T01:44:56.089Z,3.58
2023-01-05T01:47:33.334Z,3.53
2023-01-05T01:50:31.819Z,3.42
2023-01-05T01:53:12.209Z,3.53
2023-01-05T01:55:40.120Z,3.45
2023-01-05T01:58:11.281Z,2.85
2023-01-05T02:00:40.281Z,3.58
2023-01-05T02:03:07.151Z,3.35
2023-01-05T02:05:37.115Z,3.55
2023-01-05T02:08:10.890Z,3.17
2023-01-05T02:11:21.644Z,3.45
2023-01-05T02:13:48.265Z,2.97
2023-01-05T02:16:23.112Z,2.78
2023-01-05T02:19:21.977Z,3.50
2023-01-05T02:22:18.639Z,3.45
2023-01-05T02:25:29.342Z,3.30
2023-01-05T02:28:13.958Z,2.35
2023-01-05T02:33:32.901Z,2.88
2023-01-05T02:36:35.729Z,2.75
2023-01-05T02:39:15.498Z,2.47
2023-01-05T02:42:04.018Z,2.42
2023-01-05T02:44:33.558Z,2.30
2023-01-05T02:47:07.013Z,2.10
2023-01-05T02:49:40.158Z,2.73
2023-01-05T02:52:10.008Z,2.63
2023-01-05T02:54:48.015Z,2.60
2023-01-05T02:57:46.148Z,1.73
2023-01-05T03:00:40.364Z,2.30
2023-01-05T03:03:24.240Z,2.35
2023-01-05T03:06:06.716Z,2.20
2023-01-05T03:08:40.995Z,2.30
2023-01-05T03:14:05.407Z,2.63
2023-01-05T03:16:37.774Z,2.17
2023-01-05T03:19:31.059Z,3.45
2023-01-05T03:22:18.365Z,2.28
2023-01-05T03:25:04.069Z,2.58
2023-01-05T03:27:50.818Z,2.00
2023-01-05T03:30:36.663Z,2.85
2023-01-05T03:33:48.841Z,2.10
2023-01-05T03:36:18.590Z,2.72
2023-01-05T03:38:47.279Z,3.25
2023-01-05T03:41:16.406Z,2.10
2023-01-05T03:43:43.636Z,2.80
2023-01-05T03:46:16.973Z,3.40
2023-01-05T03:48:43.885Z,2.03
2023-01-05T03:51:10.818Z,2.70
2023-01-05T03:53:37.575Z,2.55
2023-01-05T03:56:04.718Z,2.90
2023-01-05T03:58:31.467Z,2.78
2023-01-05T04:00:58.200Z,3.45
2023-01-05T04:03:29.568Z,2.85
2023-01-05T04:05:58.615Z,2.70
2023-01-05T04:08:25.412Z,2.35
2023-01-05T04:10:53.483Z,3.35
2023-01-05T04:13:20.675Z,2.90
2023-01-05T04:15:47.872Z,3.25
2023-01-05T04:18:14.889Z,3.22
2023-01-05T04:20:41.874Z,2.95
2023-01-05T04:23:08.651Z,3.45
2023-01-05T04:25:35.432Z,2.85
2023-01-05T04:28:02.232Z,2.85
2023-01-05T04:30:29.018Z,3.28
2023-01-05T04:32:55.828Z,2.47
2023-01-05T04:35:22.656Z,3.00
2023-01-05T04:37:49.430Z,3.15
2023-01-05T04:40:16.302Z,3.80
2023-01-05T04:42:43.079Z,3.05
2023-01-05T04:45:10.763Z,3.60
2023-01-05T04:47:37.531Z,3.20
2023-01-05T04:50:04.890Z,3.33
2023-01-05T04:52:31.683Z,3.60
2023-01-05T04:54:58.467Z,3.63
2023-01-05T04:57:25.296Z,3.20
2023-01-05T04:59:52.088Z,2.83
2023-01-05T05:02:19.039Z,2.40
2023-01-05T05:04:45.890Z,3.22
2023-01-05T05:07:12.664Z,3.38
2023-01-05T05:09:39.435Z,3.05
2023-01-05T05:12:06.505Z,3.03
2023-01-05T05:14:33.288Z,2.25
2023-01-05T05:17:00.191Z,3.05
2023-01-05T05:19:27.023Z,2.08
2023-01-05T05:21:53.824Z,2.55
2023-01-05T05:24:20.603Z,3.28
2023-01-05T05:26:47.403Z,3.85
2023-01-05T05:29:14.154Z,2.53
2023-01-05T05:31:40.984Z,3.00
2023-01-05T05:34:07.813Z,3.55
2023-01-05T05:36:36.095Z,2.75
2023-01-05T05:39:02.840Z,3.03
2023-01-05T05:41:29.642Z,3.40
2023-01-05T05:44:00.747Z,3.25
2023-01-05T05:46:28.253Z,3.80
2023-01-05T05:48:56.165Z,2.92
2023-01-05T05:51:23.794Z,2.88
2023-01-05T05:53:51.241Z,2.88
2023-01-05T05:56:18.702Z,2.70
2023-01-05T05:58:45.590Z,2.95
2023-01-05T06:01:12.801Z,3.05
2023-01-05T06:03:39.722Z,3.20
2023-01-05T06:06:07.021Z,2.63
2023-01-05T06:08:33.899Z,3.17
2023-01-05T06:11:00.749Z,2.65
2023-01-05T06:13:27.794Z,3.17
2023-01-05T06:15:54.893Z,3.33
2023-01-05T06:18:22.256Z,2.78
2023-01-05T06:20:49.040Z,3.10
2023-01-05T06:23:15.814Z,3.13
2023-01-05T06:25:43.286Z,3.80
2023-01-05T06:28:10.113Z,2.72
2023-01-05T06:30:36.866Z,2.78
2023-01-05T06:33:03.898Z,2.83
2023-01-05T06:35:30.718Z,2.42
2023-01-05T06:37:57.483Z,2.00
2023-01-05T06:40:24.235Z,1.90
2023-01-05T06:42:51.004Z,2.03
2023-01-05T06:45:17.858Z,2.35
2023-01-05T06:47:45.016Z,2.03
2023-01-05T06:50:11.902Z,1.77
2023-01-05T06:52:40.148Z,2.55
2023-01-05T06:55:09.884Z,2.25
2023-01-05T06:57:37.164Z,1.80
2023-01-05T07:00:10.934Z,2.00
2023-01-05T07:02:38.179Z,2.63
2023-01-05T07:05:05.635Z,1.77
2023-01-05T07:07:32.709Z,2.35
2023-01-05T07:09:59.749Z,2.90
2023-01-05T07:12:26.692Z,2.85
2023-01-05T07:14:57.464Z,2.33
2023-01-05T07:17:25.258Z,2.80
2023-01-05T07:19:52.025Z,2.53
2023-01-05T07:22:18.780Z,2.70
2023-01-05T07:24:46.166Z,3.47
2023-01-05T07:27:12.943Z,3.47
2023-01-05T07:29:39.713Z,3.45
2023-01-05T07:32:06.659Z,2.97
2023-01-05T07:34:33.470Z,3.33
2023-01-05T07:37:00.307Z,4.80
2023-01-05T07:39:27.189Z,3.33
2023-01-05T07:41:53.956Z,3.08
2023-01-05T07:44:20.748Z,3.28
2023-01-05T07:46:47.608Z,3.78
2023-01-05T07:49:15.243Z,2.88
2023-01-05T07:51:42.029Z,3.40
2023-01-05T07:54:08.816Z,2.10
2023-01-05T07:56:35.581Z,2.78
2023-01-05T07:59:02.396Z,2.75
2023-01-05T08:01:29.312Z,3.10
2023-01-05T08:03:56.225Z,3.90
2023-01-05T08:06:25.051Z,2.45
2023-01-05T08:08:51.823Z,2.13
2023-01-05T08:11:21.747Z,2.55
2023-01-05T08:14:00.883Z,3.28
2023-01-05T08:16:32.366Z,2.40
2023-01-05T08:18:59.917Z,2.55
2023-01-05T08:21:26.953Z,2.30
2023-01-05T08:23:54.120Z,2.53
2023-01-05T08:26:23.564Z,2.42
2023-01-05T08:28:51.461Z,2.92
2023-01-05T08:31:22.740Z,3.08
2023-01-05T08:33:50.173Z,3.03
2023-01-05T08:36:20.233Z,2.67
2023-01-05T08:38:56.049Z,2.50
2023-01-05T08:41:27.954Z,2.80
2023-01-05T08:43:57.656Z,3.97
2023-01-05T08:46:27.622Z,2.20
2023-01-05T08:48:57.422Z,2.60
2023-01-05T08:51:24.757Z,2.28
2023-01-05T08:53:51.709Z,2.72
2023-01-05T08:56:19.153Z,2.92
2023-01-05T08:58:46.045Z,3.10
2023-01-05T09:01:16.822Z,2.03
2023-01-05T09:03:44.498Z,2.72
2023-01-05T09:06:13.214Z,2.58
2023-01-05T09:08:42.193Z,2.65
2023-01-05T09:11:18.209Z,2.17
2023-01-05T09:13:54.610Z,2.17
2023-01-05T09:16:56.862Z,2.83
2023-01-05T09:19:13.541Z,2.65
2023-01-05T09:21:40.494Z,1.92
2023-01-05T09:24:08.851Z,1.98
2023-01-05T09:26:35.639Z,2.15
2023-01-05T09:29:02.439Z,2.83
2023-01-05T09:31:29.665Z,2.13
2023-01-05T09:34:00.371Z,1.85
2023-01-05T09:36:27.431Z,2.67
2023-01-05T09:38:58.364Z,1.95
2023-01-05T09:41:52.271Z,2.13
2023-01-05T09:44:46.440Z,2.60
2023-01-05T09:47:37.697Z,2.67
2023-01-05T09:50:17.923Z,2.55
2023-01-05T09:52:44.767Z,1.67
2023-01-05T09:55:20.960Z,2.25
2023-01-05T09:58:00.149Z,2.83
2023-01-05T10:00:28.383Z,2.47
2023-01-05T10:03:53.632Z,2.10
2023-01-05T10:06:15.000Z,1.08
2023-01-05T10:08:50.037Z,0.73
2023-01-05T10:12:16.878Z,0.82
2023-01-05T10:14:50.435Z,0.70
2023-01-05T10:20:43.642Z,0.88
2023-01-05T10:23:50.911Z,0.68
2023-01-05T10:27:14.399Z,0.40
2023-01-05T10:29:47.737Z,0.73
2023-01-05T10:32:50.502Z,0.63
2023-01-05T10:35:59.096Z,0.70
2023-01-05T10:38:50.172Z,0.82
2023-01-05T10:41:59.121Z,0.70
2023-01-05T10:44:56.579Z,0.70
2023-01-05T10:47:26.141Z,0.85
2023-01-05T10:49:53.582Z,0.70
2023-01-05T10:52:22.413Z,1.27
2023-01-05T10:54:58.551Z,1.17
2023-01-05T10:57:40.286Z,2.97
2023-01-05T11:00:19.806Z,1.42
2023-01-05T11:03:03.149Z,0.80
2023-01-05T11:05:45.249Z,0.70
2023-01-05T11:08:27.241Z,1.05
2023-01-05T11:10:58.981Z,0.65
2023-01-05T11:13:31.862Z,0.47
2023-01-05T11:16:16.117Z,1.15
2023-01-05T11:19:01.727Z,0.52
2023-01-05T11:21:45.937Z,0.52
2023-01-05T11:24:24.913Z,0.80
2023-01-05T11:27:01.717Z,0.98
2023-01-05T11:29:29.592Z,0.50
2023-01-05T11:32:10.942Z,0.52
2023-01-05T11:34:47.129Z,0.98
2023-01-05T11:37:28.596Z,0.60
2023-01-05T11:40:00.953Z,0.82
2023-01-05T11:42:30.523Z,0.68
2023-01-05T11:45:17.606Z,0.63
2023-01-05T11:48:04.976Z,0.55
2023-01-05T11:50:42.898Z,0.70
2023-01-05T11:53:33.734Z,0.75
2023-01-05T11:56:22.578Z,0.73
2023-01-05T11:58:55.012Z,0.50
2023-01-05T12:01:44.514Z,1.17
2023-01-05T12:04:48.154Z,0.55
2023-01-05T12:07:38.426Z,0.70
2023-01-05T12:10:29.484Z,0.60
2023-01-05T12:13:30.275Z,0.77
2023-01-05T12:16:38.889Z,0.70
2023-01-05T12:19:18.546Z,1.00
2023-01-05T12:21:51.401Z,0.93
2023-01-05T12:24:42.667Z,0.77
2023-01-05T12:27:32.830Z,0.88
2023-01-05T12:37:00.399Z,0.65
2023-01-05T12:40:11.246Z,0.47
2023-01-05T12:42:58.572Z,0.43
2023-01-05T12:45:57.428Z,0.52
2023-01-05T12:48:32.998Z,0.88
2023-01-05T12:51:26.507Z,0.63
2023-01-05T12:54:46.518Z,0.50
2023-01-05T12:57:38.708Z,0.50
2023-01-05T13:00:14.998Z,0.50
2023-01-05T13:02:49.512Z,0.43
2023-01-05T13:05:51.038Z,0.35
2023-01-05T13:08:24.786Z,0.47
2023-01-05T13:11:06.845Z,1.00
2023-01-05T13:13:40.313Z,0.65
2023-01-05T13:16:16.510Z,0.70
2023-01-05T13:18:54.038Z,0.43
2023-01-05T13:21:23.051Z,0.47
2023-01-05T13:23:59.903Z,0.70
2023-01-05T13:26:26.724Z,1.52
2023-01-05T13:29:02.691Z,2.45
2023-01-05T13:32:04.810Z,1.83
2023-01-05T13:35:15.196Z,0.60
2023-01-05T13:38:23.737Z,0.95
2023-01-05T13:41:24.405Z,0.57
2023-01-05T13:44:11.158Z,0.45
2023-01-05T13:47:13.033Z,0.50
2023-01-05T13:50:23.039Z,0.35
2023-01-05T13:53:06.756Z,0.52
2023-01-05T13:55:45.442Z,0.83
2023-01-05T13:58:39.692Z,0.75
2023-01-05T14:01:12.336Z,1.13
2023-01-05T14:03:46.643Z,1.23
2023-01-05T14:06:27.510Z,1.20
2023-01-05T14:11:36.900Z,1.30
2023-01-05T14:14:31.307Z,1.15
2023-01-05T14:16:58.385Z,1.45
2023-01-05T14:19:50.302Z,0.90
2023-01-05T14:22:33.546Z,1.02
2023-01-05T14:25:38.632Z,0.95
2023-01-05T14:28:43.326Z,1.02
2023-01-05T14:31:18.912Z,1.13
2023-01-05T14:33:52.223Z,1.35
2023-01-05T14:36:33.303Z,0.85
2023-01-05T14:39:05.018Z,0.85
2023-01-05T14:41:31.957Z,1.10
2023-01-05T14:44:17.452Z,1.17
2023-01-05T14:46:55.622Z,1.60
2023-01-05T14:49:43.652Z,1.02
2023-01-05T14:52:22.058Z,0.90
2023-01-05T14:54:52.951Z,1.05
2023-01-05T14:57:27.259Z,1.00
2023-01-05T15:00:10.928Z,0.95
2023-01-05T15:03:12.383Z,1.00
2023-01-05T15:06:28.364Z,1.08
2023-01-05T15:09:01.087Z,1.15
2023-01-05T15:11:36.707Z,1.67
2023-01-05T15:14:37.417Z,1.40
2023-01-05T15:17:29.368Z,1.55
2023-01-05T15:20:17.704Z,1.50
2023-01-05T15:23:36.613Z,1.80
2023-01-05T15:26:28.094Z,1.00
2023-01-05T15:29:42.187Z,1.05
2023-01-05T15:32:22.013Z,1.20
2023-01-05T15:35:08.211Z,1.55
2023-01-05T15:37:38.894Z,1.20
2023-01-05T15:40:31.575Z,1.10
2023-01-05T15:43:02.772Z,1.48
2023-01-05T15:45:36.143Z,0.88
2023-01-05T15:48:09.651Z,1.13
2023-01-05T15:50:46.595Z,1.55
2023-01-05T15:53:30.188Z,1.33
2023-01-05T15:55:58.710Z,1.75
2023-01-05T15:58:29.889Z,1.42
2023-01-05T16:01:08.524Z,1.55
2023-01-05T16:03:37.978Z,1.77
2023-01-05T16:06:21.420Z,1.90
2023-01-05T16:08:51.618Z,1.23
2023-01-05T16:11:26.678Z,1.20
2023-01-05T16:14:38.660Z,1.38
2023-01-05T16:17:15.791Z,1.50
2023-01-05T16:20:09.494Z,1.70
2023-01-05T16:22:45.580Z,1.52
2023-01-05T16:25:22.072Z,1.70
2023-01-05T16:27:58.497Z,1.88
2023-01-05T16:30:35.897Z,1.80
2023-01-05T16:33:12.033Z,1.63
2023-01-05T16:35:55.165Z,1.80
2023-01-05T16:38:30.369Z,1.65
2023-01-05T16:41:09.886Z,1.65
2023-01-05T16:43:39.715Z,2.40
2023-01-05T16:46:39.017Z,1.65
2023-01-05T16:49:49.902Z,1.30
2023-01-05T16:52:27.234Z,1.23
2023-01-05T16:55:27.678Z,1.30
2023-01-05T16:57:55.606Z,2.00
2023-01-05T17:00:28.307Z,1.77
2023-01-05T17:03:00.705Z,2.50
2023-01-05T17:05:32.085Z,2.97
2023-01-05T17:08:20.556Z,2.58
2023-01-05T17:10:47.837Z,3.13
2023-01-05T17:13:35.899Z,2.38
2023-01-05T17:16:03.957Z,2.97
2023-01-05T17:18:31.251Z,2.90
2023-01-05T17:20:59.597Z,7.40
2023-01-05T17:23:33.707Z,6.72
2023-01-05T17:26:06.466Z,6.13
2023-01-05T17:28:33.635Z,3.78
2023-01-05T17:31:00.619Z,3.60
2023-01-05T17:33:27.565Z,2.70
2023-01-05T17:35:55.153Z,2.50
2023-01-05T17:38:21.974Z,2.22
2023-01-05T17:40:49.225Z,1.85
2023-01-05T17:43:16.256Z,2.10
2023-01-05T17:45:44.303Z,1.83
2023-01-05T17:50:43.744Z,1.98
2023-01-05T17:53:10.842Z,1.67
2023-01-05T17:55:39.449Z,2.08
2023-01-05T17:58:06.309Z,2.25
2023-01-05T18:00:39.501Z,2.10
2023-01-05T18:03:06.289Z,1.75
2023-01-05T18:05:33.084Z,1.75
2023-01-05T18:08:00.196Z,2.75
2023-01-05T18:10:29.120Z,2.55
2023-01-05T18:12:56.654Z,2.17
2023-01-05T18:15:23.628Z,2.20
2023-01-05T18:17:50.432Z,2.10
2023-01-05T18:20:20.028Z,2.00
2023-01-05T18:22:48.387Z,2.05
2023-01-05T18:25:15.408Z,2.15
2023-01-05T18:27:42.228Z,2.30
2023-01-05T18:30:11.166Z,2.70
2023-01-05T18:32:39.021Z,2.97
2023-01-05T18:35:09.886Z,3.03
2023-01-05T18:37:39.051Z,2.88
2023-01-05T18:40:06.914Z,2.70
2023-01-05T18:42:33.685Z,2.58
2023-01-05T18:45:08.946Z,2.47
2023-01-05T18:47:46.512Z,2.45
2023-01-05T18:50:13.435Z,2.65
2023-01-05T18:52:40.201Z,3.00
2023-01-05T18:55:07.287Z,3.08
2023-01-05T18:57:34.272Z,3.70
2023-01-05T19:00:01.151Z,2.47
2023-01-05T19:02:28.425Z,2.95
2023-01-05T19:04:55.785Z,2.78
2023-01-05T19:07:22.661Z,2.60
2023-01-05T19:09:49.455Z,2.13
2023-01-05T19:12:16.387Z,2.75
2023-01-05T19:14:43.158Z,3.70
2023-01-05T19:17:09.977Z,3.50
2023-01-05T19:19:36.758Z,3.22
2023-01-05T19:22:03.560Z,3.95
2023-01-05T19:24:31.758Z,5.18
2023-01-05T19:26:58.763Z,5.30
2023-01-05T19:29:25.612Z,5.13
2023-01-05T19:31:52.412Z,5.18
2023-01-05T19:34:19.605Z,5.25
2023-01-05T19:36:49.085Z,5.22
2023-01-05T19:39:19.483Z,5.25
2023-01-05T19:41:48.329Z,6.32
2023-01-05T19:44:21.109Z,6.20
2023-01-05T19:46:54.651Z,6.63
2023-01-05T19:49:25.703Z,6.40
2023-01-05T19:51:53.160Z,6.40
2023-01-05T19:54:22.328Z,6.35
2023-01-05T19:56:49.153Z,5.82
2023-01-05T19:59:26.390Z,5.68
2023-01-05T20:01:54.793Z,7.60
2023-01-05T20:04:21.638Z,8.05
2023-01-05T20:06:48.429Z,8.13
2023-01-05T20:09:18.796Z,8.75
2023-01-05T20:11:48.797Z,7.72
2023-01-05T20:14:30.789Z,7.20
2023-01-05T20:17:05.708Z,6.57
2023-01-05T20:19:35.236Z,6.32
2023-01-05T20:22:05.720Z,6.88
2023-01-05T20:24:36.069Z,6.30
2023-01-05T20:27:08.407Z,6.25
2023-01-05T20:29:35.889Z,6.20
2023-01-05T20:32:08.206Z,6.90
2023-01-05T20:34:38.371Z,6.72
2023-01-05T20:37:08.010Z,6.65
2023-01-05T20:39:36.023Z,6.78
2023-01-05T20:42:05.882Z,6.40
2023-01-05T20:44:37.045Z,6.32
2023-01-05T20:47:06.441Z,7.63
2023-01-05T20:49:36.669Z,8.18
2023-01-05T20:52:04.969Z,8.10
2023-01-05T20:54:31.778Z,8.75
2023-01-05T20:56:58.575Z,9.35
2023-01-05T20:59:30.070Z,8.45
2023-01-05T21:01:58.876Z,7.78
2023-01-05T21:04:27.771Z,8.48
2023-01-05T21:06:54.711Z,7.65
2023-01-05T21:09:25.430Z,7.65
2023-01-05T21:11:52.206Z,5.97
2023-01-05T21:14:19.905Z,6.40
2023-01-05T21:16:51.646Z,6.90
2023-01-05T21:19:22.924Z,6.63
2023-01-05T21:21:55.674Z,6.65
2023-01-05T21:24:23.334Z,6.45
2023-01-05T21:26:50.194Z,6.50
2023-01-05T21:29:20.131Z,6.65
2023-01-05T21:31:46.979Z,7.07
2023-01-05T21:34:14.061Z,7.00
2023-01-05T21:36:45.096Z,6.20
2023-01-05T21:39:18.871Z,8.10
2023-01-05T21:42:05.886Z,7.38
2023-01-05T21:44:33.394Z,7.57
2023-01-05T21:47:00.287Z,7.30
2023-01-05T21:49:27.321Z,7.40
2023-01-05T21:52:12.836Z,7.40
2023-01-05T21:54:57.925Z,6.97
2023-01-05T21:57:24.967Z,7.40
2023-01-05T21:59:51.827Z,6.75
2023-01-05T22:02:18.744Z,7.25
2023-01-05T22:04:45.925Z,8.68
2023-01-05T22:07:12.805Z,7.30
2023-01-05T22:09:39.675Z,7.00
2023-01-05T22:12:08.649Z,7.20
2023-01-05T22:14:39.696Z,6.80
2023-01-05T22:17:08.452Z,7.05
2023-01-05T22:19:35.698Z,8.82
2023-01-05T22:22:02.508Z,8.98
2023-01-05T22:24:29.322Z,10.38
2023-01-05T22:26:56.384Z,7.57
2023-01-05T22:29:23.553Z,7.78
2023-01-05T22:31:50.737Z,9.25
2023-01-05T22:34:17.787Z,9.18
2023-01-05T22:36:44.662Z,9.60
2023-01-05T22:39:12.241Z,8.25
2023-01-05T22:41:39.145Z,8.80
2023-01-05T22:44:06.680Z,9.18
2023-01-05T22:46:34.029Z,8.80
2023-01-05T22:49:00.847Z,10.57
2023-01-05T22:51:31.513Z,8.90
2023-01-05T22:53:59.325Z,9.95
2023-01-05T22:56:31.685Z,10.88
2023-01-05T22:58:59.054Z,10.20
2023-01-05T23:01:37.007Z,9.93
2023-01-05T23:04:06.167Z,9.65
2023-01-05T23:06:33.508Z,11.10
2023-01-05T23:09:00.847Z,10.02
2023-01-05T23:11:34.612Z,10.23
2023-01-05T23:14:04.385Z,6.75
2023-01-05T23:16:32.581Z,9.68
2023-01-05T23:18:59.409Z,9.73
2023-01-05T23:21:26.869Z,9.98
2023-01-05T23:23:56.320Z,10.60
2023-01-05T23:26:25.328Z,9.63
2023-01-05T23:28:52.381Z,10.68
2023-01-05T23:31:25.240Z,10.93
2023-01-05T23:33:54.736Z,10.07
2023-01-05T23:36:23.826Z,11.52
2023-01-05T23:38:50.763Z,9.80
2023-01-05T23:41:17.938Z,10.88
2023-01-05T23:43:46.069Z,9.98
2023-01-05T23:46:16.903Z,10.30
2023-01-05T23:48:44.233Z,10.50
2023-01-05T23:51:16.850Z,11.25
2023-01-05T23:53:47.605Z,10.95
2023-01-05T23:56:19.186Z,10.32
2023-01-05T23:58:46.289Z,10.63
